sensor_id;sensor_type;location;lat;lon;timestamp;P1;durP1;ratioP1;P2;durP2;ratioP2
65368;SDS011;51970;53.484;49.488;2023-07-02T00:01:45;7.07;;;3.17;;
65368;SDS011;51970;53.484;49.488;2023-07-02T00:04:12;6.72;;;3.63;;
65368;SDS011;51970;53.484;49.488;2023-07-02T00:06:50;6.35;;;3.15;;
65368;SDS011;51970;53.484;49.488;2023-07-02T00:09:17;7.97;;;3.70;;
65368;SDS011;51970;53.484;49.488;2023-07-02T00:11:43;8.02;;;4.30;;
65368;SDS011;51970;53.484;49.488;2023-07-02T00:14:11;9.70;;;4.28;;
65368;SDS011;51970;53.484;49.488;2023-07-02T00:16:39;7.15;;;3.85;;
65368;SDS011;51970;53.484;49.488;2023-07-02T00:19:14;6.97;;;3.72;;
65368;SDS011;51970;53.484;49.488;2023-07-02T00:21:41;8.70;;;3.17;;
65368;SDS011;51970;53.484;49.488;2023-07-02T00:24:07;8.15;;;3.33;;
65368;SDS011;51970;53.484;49.488;2023-07-02T00:26:37;7.82;;;3.00;;
65368;SDS011;51970;53.484;49.488;2023-07-02T00:29:05;8.20;;;3.90;;
65368;SDS011;51970;53.484;49.488;2023-07-02T00:31:33;8.90;;;3.20;;
65368;SDS011;51970;53.484;49.488;2023-07-02T00:33:59;9.30;;;3.38;;
65368;SDS011;51970;53.484;49.488;2023-07-02T00:36:29;8.38;;;3.53;;
65368;SDS011;51970;53.484;49.488;2023-07-02T00:38:56;7.10;;;3.83;;
65368;SDS011;51970;53.484;49.488;2023-07-02T00:41:22;8.55;;;3.05;;
65368;SDS011;51970;53.484;49.488;2023-07-02T00:43:49;8.00;;;2.88;;
65368;SDS011;51970;53.484;49.488;2023-07-02T00:46:19;6.57;;;2.45;;
65368;SDS011;51970;53.484;49.488;2023-07-02T00:48:47;5.85;;;2.97;;
65368;SDS011;51970;53.484;49.488;2023-07-02T00:51:17;6.80;;;3.10;;
65368;SDS011;51970;53.484;49.488;2023-07-02T00:53:45;6.18;;;3.13;;
65368;SDS011;51970;53.484;49.488;2023-07-02T00:56:12;8.52;;;3.50;;
65368;SDS011;51970;53.484;49.488;2023-07-02T00:58:40;6.75;;;3.40;;
65368;SDS011;51970;53.484;49.488;2023-07-02T01:01:15;10.48;;;3.40;;
65368;SDS011;51970;53.484;49.488;2023-07-02T01:03:49;6.18;;;3.13;;
65368;SDS011;51970;53.484;49.488;2023-07-02T01:06:30;6.82;;;3.25;;
65368;SDS011;51970;53.484;49.488;2023-07-02T01:08:58;7.38;;;3.40;;
65368;SDS011;51970;53.484;49.488;2023-07-02T01:11:50;6.00;;;2.88;;
65368;SDS011;51970;53.484;49.488;2023-07-02T01:14:28;7.07;;;3.20;;
65368;SDS011;51970;53.484;49.488;2023-07-02T01:16:59;5.90;;;3.05;;
65368;SDS011;51970;53.484;49.488;2023-07-02T01:22:21;6.75;;;3.35;;
65368;SDS011;51970;53.484;49.488;2023-07-02T01:24:49;5.85;;;2.97;;
65368;SDS011;51970;53.484;49.488;2023-07-02T01:27:16;7.63;;;3.22;;
65368;SDS011;51970;53.484;49.488;2023-07-02T01:29:43;8.63;;;2.88;;
65368;SDS011;51970;53.484;49.488;2023-07-02T01:32:15;7.38;;;3.42;;
65368;SDS011;51970;53.484;49.488;2023-07-02T01:34:41;11.18;;;2.78;;
65368;SDS011;51970;53.484;49.488;2023-07-02T01:37:14;6.25;;;2.67;;
65368;SDS011;51970;53.484;49.488;2023-07-02T01:39:42;7.82;;;2.53;;
65368;SDS011;51970;53.484;49.488;2023-07-02T01:44:41;6.50;;;3.38;;
65368;SDS011;51970;53.484;49.488;2023-07-02T01:47:12;6.47;;;3.17;;
65368;SDS011;51970;53.484;49.488;2023-07-02T01:49:39;6.53;;;2.97;;
65368;SDS011;51970;53.484;49.488;2023-07-02T01:52:05;9.23;;;3.55;;
65368;SDS011;51970;53.484;49.488;2023-07-02T01:54:32;8.30;;;3.30;;
65368;SDS011;51970;53.484;49.488;2023-07-02T01:56:59;7.13;;;2.95;;
65368;SDS011;51970;53.484;49.488;2023-07-02T01:59:25;6.18;;;2.55;;
65368;SDS011;51970;53.484;49.488;2023-07-02T02:01:52;10.30;;;2.70;;
65368;SDS011;51970;53.484;49.488;2023-07-02T02:04:18;6.38;;;3.28;;
65368;SDS011;51970;53.484;49.488;2023-07-02T02:06:44;7.25;;;2.80;;
65368;SDS011;51970;53.484;49.488;2023-07-02T02:09:10;6.80;;;2.75;;
65368;SDS011;51970;53.484;49.488;2023-07-02T02:11:40;5.45;;;2.28;;
65368;SDS011;51970;53.484;49.488;2023-07-02T02:14:08;30.15;;;3.13;;
65368;SDS011;51970;53.484;49.488;2023-07-02T02:16:35;24.08;;;3.15;;
65368;SDS011;51970;53.484;49.488;2023-07-02T02:19:01;5.43;;;2.55;;
65368;SDS011;51970;53.484;49.488;2023-07-02T02:21:27;5.55;;;2.40;;
65368;SDS011;51970;53.484;49.488;2023-07-02T02:23:53;7.00;;;2.83;;
65368;SDS011;51970;53.484;49.488;2023-07-02T02:26:20;4.72;;;2.35;;
65368;SDS011;51970;53.484;49.488;2023-07-02T02:28:47;5.45;;;2.47;;
65368;SDS011;51970;53.484;49.488;2023-07-02T02:31:14;8.60;;;2.47;;
65368;SDS011;51970;53.484;49.488;2023-07-02T02:33:41;5.45;;;2.35;;
65368;SDS011;51970;53.484;49.488;2023-07-02T02:36:07;6.20;;;2.80;;
65368;SDS011;51970;53.484;49.488;2023-07-02T02:38:33;5.28;;;2.33;;
65368;SDS011;51970;53.484;49.488;2023-07-02T02:40:59;6.10;;;2.92;;
65368;SDS011;51970;53.484;49.488;2023-07-02T02:43:27;8.07;;;2.25;;
65368;SDS011;51970;53.484;49.488;2023-07-02T02:45:53;4.72;;;2.28;;
65368;SDS011;51970;53.484;49.488;2023-07-02T02:48:19;5.68;;;2.47;;
65368;SDS011;51970;53.484;49.488;2023-07-02T02:50:47;5.43;;;2.30;;
65368;SDS011;51970;53.484;49.488;2023-07-02T02:53:13;5.45;;;2.05;;
65368;SDS011;51970;53.484;49.488;2023-07-02T02:55:39;4.97;;;2.05;;
65368;SDS011;51970;53.484;49.488;2023-07-02T02:58:05;5.90;;;1.98;;
65368;SDS011;51970;53.484;49.488;2023-07-02T03:00:32;6.72;;;2.30;;
65368;SDS011;51970;53.484;49.488;2023-07-02T03:02:58;5.25;;;1.85;;
65368;SDS011;51970;53.484;49.488;2023-07-02T03:05:24;5.78;;;2.03;;
65368;SDS011;51970;53.484;49.488;2023-07-02T03:07:51;5.22;;;2.25;;
65368;SDS011;51970;53.484;49.488;2023-07-02T03:10:17;5.68;;;2.10;;
65368;SDS011;51970;53.484;49.488;2023-07-02T03:12:44;5.20;;;1.83;;
65368;SDS011;51970;53.484;49.488;2023-07-02T03:15:10;4.38;;;1.90;;
65368;SDS011;51970;53.484;49.488;2023-07-02T03:17:36;5.60;;;2.05;;
65368;SDS011;51970;53.484;49.488;2023-07-02T03:20:02;5.85;;;1.90;;
65368;SDS011;51970;53.484;49.488;2023-07-02T03:22:33;5.35;;;2.05;;
65368;SDS011;51970;53.484;49.488;2023-07-02T03:25:00;4.78;;;1.77;;
65368;SDS011;51970;53.484;49.488;2023-07-02T03:27:26;5.55;;;1.90;;
65368;SDS011;51970;53.484;49.488;2023-07-02T03:29:52;10.60;;;2.10;;
65368;SDS011;51970;53.484;49.488;2023-07-02T03:32:18;4.50;;;1.75;;
65368;SDS011;51970;53.484;49.488;2023-07-02T03:34:44;4.82;;;2.35;;
65368;SDS011;51970;53.484;49.488;2023-07-02T03:37:10;6.38;;;1.88;;
65368;SDS011;51970;53.484;49.488;2023-07-02T03:39:36;5.07;;;1.65;;
65368;SDS011;51970;53.484;49.488;2023-07-02T03:42:04;8.45;;;2.13;;
65368;SDS011;51970;53.484;49.488;2023-07-02T03:44:31;4.80;;;1.45;;
65368;SDS011;51970;53.484;49.488;2023-07-02T03:46:57;6.28;;;2.30;;
65368;SDS011;51970;53.484;49.488;2023-07-02T03:49:23;5.30;;;1.88;;
65368;SDS011;51970;53.484;49.488;2023-07-02T03:51:49;6.03;;;2.10;;
65368;SDS011;51970;53.484;49.488;2023-07-02T03:54:16;4.70;;;2.03;;
65368;SDS011;51970;53.484;49.488;2023-07-02T03:56:43;4.57;;;1.38;;
65368;SDS011;51970;53.484;49.488;2023-07-02T03:59:09;6.35;;;1.65;;
65368;SDS011;51970;53.484;49.488;2023-07-02T04:01:35;6.78;;;1.88;;
65368;SDS011;51970;53.484;49.488;2023-07-02T04:04:01;3.60;;;1.02;;
65368;SDS011;51970;53.484;49.488;2023-07-02T04:06:27;6.30;;;2.20;;
65368;SDS011;51970;53.484;49.488;2023-07-02T04:08:53;6.32;;;1.98;;
65368;SDS011;51970;53.484;49.488;2023-07-02T04:11:20;5.25;;;2.72;;
65368;SDS011;51970;53.484;49.488;2023-07-02T04:13:46;6.43;;;2.60;;
65368;SDS011;51970;53.484;49.488;2023-07-02T04:16:12;4.30;;;2.10;;
65368;SDS011;51970;53.484;49.488;2023-07-02T04:18:38;5.13;;;2.15;;
65368;SDS011;51970;53.484;49.488;2023-07-02T04:21:04;11.23;;;2.10;;
65368;SDS011;51970;53.484;49.488;2023-07-02T04:23:30;5.82;;;2.42;;
65368;SDS011;51970;53.484;49.488;2023-07-02T04:25:56;5.20;;;1.98;;
65368;SDS011;51970;53.484;49.488;2023-07-02T04:28:22;4.97;;;2.17;;
65368;SDS011;51970;53.484;49.488;2023-07-02T04:30:48;5.82;;;2.33;;
65368;SDS011;51970;53.484;49.488;2023-07-02T04:33:17;8.55;;;2.50;;
65368;SDS011;51970;53.484;49.488;2023-07-02T04:35:43;5.78;;;2.05;;
65368;SDS011;51970;53.484;49.488;2023-07-02T04:38:09;6.25;;;1.77;;
65368;SDS011;51970;53.484;49.488;2023-07-02T04:40:35;6.68;;;1.92;;
65368;SDS011;51970;53.484;49.488;2023-07-02T04:43:01;5.90;;;1.73;;
65368;SDS011;51970;53.484;49.488;2023-07-02T04:45:29;8.85;;;2.65;;
65368;SDS011;51970;53.484;49.488;2023-07-02T04:48:02;6.55;;;2.15;;
65368;SDS011;51970;53.484;49.488;2023-07-02T04:50:29;5.63;;;2.35;;
65368;SDS011;51970;53.484;49.488;2023-07-02T04:52:55;7.07;;;2.47;;
65368;SDS011;51970;53.484;49.488;2023-07-02T04:55:21;5.68;;;2.22;;
65368;SDS011;51970;53.484;49.488;2023-07-02T04:57:47;5.15;;;1.90;;
65368;SDS011;51970;53.484;49.488;2023-07-02T05:00:14;5.40;;;2.53;;
65368;SDS011;51970;53.484;49.488;2023-07-02T05:02:40;6.55;;;2.53;;
65368;SDS011;51970;53.484;49.488;2023-07-02T05:05:06;4.47;;;1.88;;
65368;SDS011;51970;53.484;49.488;2023-07-02T05:07:33;6.07;;;1.55;;
65368;SDS011;51970;53.484;49.488;2023-07-02T05:09:59;5.18;;;1.85;;
65368;SDS011;51970;53.484;49.488;2023-07-02T05:12:25;4.55;;;1.70;;
65368;SDS011;51970;53.484;49.488;2023-07-02T05:14:51;4.53;;;1.52;;
65368;SDS011;51970;53.484;49.488;2023-07-02T05:17:17;7.47;;;1.50;;
65368;SDS011;51970;53.484;49.488;2023-07-02T05:19:43;5.35;;;1.83;;
65368;SDS011;51970;53.484;49.488;2023-07-02T05:22:09;4.65;;;1.48;;
65368;SDS011;51970;53.484;49.488;2023-07-02T05:24:36;6.20;;;2.13;;
65368;SDS011;51970;53.484;49.488;2023-07-02T05:27:02;4.80;;;1.70;;
65368;SDS011;51970;53.484;49.488;2023-07-02T05:29:29;5.30;;;1.88;;
65368;SDS011;51970;53.484;49.488;2023-07-02T05:31:55;4.80;;;1.83;;
65368;SDS011;51970;53.484;49.488;2023-07-02T05:34:21;3.92;;;1.35;;
65368;SDS011;51970;53.484;49.488;2023-07-02T05:36:47;5.88;;;2.42;;
65368;SDS011;51970;53.484;49.488;2023-07-02T05:39:13;7.95;;;3.28;;
65368;SDS011;51970;53.484;49.488;2023-07-02T05:41:39;6.10;;;3.13;;
65368;SDS011;51970;53.484;49.488;2023-07-02T05:44:05;6.45;;;3.40;;
65368;SDS011;51970;53.484;49.488;2023-07-02T05:46:32;7.25;;;3.97;;
65368;SDS011;51970;53.484;49.488;2023-07-02T05:48:58;6.03;;;2.40;;
65368;SDS011;51970;53.484;49.488;2023-07-02T05:51:25;7.65;;;3.40;;
65368;SDS011;51970;53.484;49.488;2023-07-02T05:53:51;9.05;;;2.97;;
65368;SDS011;51970;53.484;49.488;2023-07-02T05:56:18;7.10;;;3.80;;
65368;SDS011;51970;53.484;49.488;2023-07-02T05:58:45;8.02;;;3.17;;
65368;SDS011;51970;53.484;49.488;2023-07-02T06:01:12;10.85;;;4.47;;
65368;SDS011;51970;53.484;49.488;2023-07-02T06:03:38;7.15;;;2.80;;
65368;SDS011;51970;53.484;49.488;2023-07-02T06:06:04;5.80;;;2.25;;
65368;SDS011;51970;53.484;49.488;2023-07-02T06:08:30;7.63;;;4.00;;
65368;SDS011;51970;53.484;49.488;2023-07-02T06:10:56;6.72;;;3.30;;
65368;SDS011;51970;53.484;49.488;2023-07-02T06:13:22;7.05;;;2.05;;
65368;SDS011;51970;53.484;49.488;2023-07-02T06:15:49;7.00;;;2.88;;
65368;SDS011;51970;53.484;49.488;2023-07-02T06:18:15;8.07;;;2.05;;
65368;SDS011;51970;53.484;49.488;2023-07-02T06:20:42;5.28;;;2.28;;
65368;SDS011;51970;53.484;49.488;2023-07-02T06:23:09;5.32;;;2.03;;
65368;SDS011;51970;53.484;49.488;2023-07-02T06:25:35;6.60;;;2.75;;
65368;SDS011;51970;53.484;49.488;2023-07-02T06:28:01;7.50;;;2.53;;
65368;SDS011;51970;53.484;49.488;2023-07-02T06:30:27;6.43;;;2.22;;
65368;SDS011;51970;53.484;49.488;2023-07-02T06:32:54;5.03;;;1.98;;
65368;SDS011;51970;53.484;49.488;2023-07-02T06:35:20;5.72;;;2.90;;
65368;SDS011;51970;53.484;49.488;2023-07-02T06:37:46;5.25;;;2.38;;
65368;SDS011;51970;53.484;49.488;2023-07-02T06:40:13;6.57;;;2.70;;
65368;SDS011;51970;53.484;49.488;2023-07-02T06:42:39;6.35;;;3.08;;
65368;SDS011;51970;53.484;49.488;2023-07-02T06:45:06;5.72;;;2.88;;
65368;SDS011;51970;53.484;49.488;2023-07-02T06:47:32;5.50;;;2.22;;
65368;SDS011;51970;53.484;49.488;2023-07-02T06:49:59;5.63;;;2.42;;
65368;SDS011;51970;53.484;49.488;2023-07-02T06:52:25;5.32;;;2.70;;
65368;SDS011;51970;53.484;49.488;2023-07-02T06:54:51;4.95;;;1.90;;
65368;SDS011;51970;53.484;49.488;2023-07-02T06:57:17;5.85;;;2.25;;
65368;SDS011;51970;53.484;49.488;2023-07-02T06:59:43;5.55;;;2.60;;
65368;SDS011;51970;53.484;49.488;2023-07-02T07:02:09;5.40;;;2.10;;
65368;SDS011;51970;53.484;49.488;2023-07-02T07:04:35;4.35;;;1.85;;
65368;SDS011;51970;53.484;49.488;2023-07-02T07:07:02;7.50;;;2.70;;
65368;SDS011;51970;53.484;49.488;2023-07-02T07:09:28;5.35;;;2.28;;
65368;SDS011;51970;53.484;49.488;2023-07-02T07:11:55;5.72;;;2.65;;
65368;SDS011;51970;53.484;49.488;2023-07-02T07:14:22;8.45;;;3.03;;
65368;SDS011;51970;53.484;49.488;2023-07-02T07:16:48;5.88;;;2.53;;
65368;SDS011;51970;53.484;49.488;2023-07-02T07:19:15;5.65;;;2.53;;
65368;SDS011;51970;53.484;49.488;2023-07-02T07:21:42;7.70;;;2.38;;
65368;SDS011;51970;53.484;49.488;2023-07-02T07:24:09;8.07;;;2.50;;
65368;SDS011;51970;53.484;49.488;2023-07-02T07:26:35;6.90;;;2.67;;
65368;SDS011;51970;53.484;49.488;2023-07-02T07:29:01;8.45;;;2.25;;
65368;SDS011;51970;53.484;49.488;2023-07-02T07:31:29;18.55;;;2.97;;
65368;SDS011;51970;53.484;49.488;2023-07-02T07:33:55;7.32;;;3.65;;
65368;SDS011;51970;53.484;49.488;2023-07-02T07:36:21;6.88;;;2.80;;
65368;SDS011;51970;53.484;49.488;2023-07-02T07:38:47;5.65;;;2.42;;
65368;SDS011;51970;53.484;49.488;2023-07-02T07:41:13;8.00;;;2.58;;
65368;SDS011;51970;53.484;49.488;2023-07-02T07:43:39;5.57;;;1.88;;
65368;SDS011;51970;53.484;49.488;2023-07-02T07:46:05;5.57;;;2.50;;
65368;SDS011;51970;53.484;49.488;2023-07-02T07:48:31;7.00;;;2.08;;
65368;SDS011;51970;53.484;49.488;2023-07-02T07:50:57;5.22;;;2.15;;
65368;SDS011;51970;53.484;49.488;2023-07-02T07:53:23;9.05;;;2.17;;
65368;SDS011;51970;53.484;49.488;2023-07-02T07:55:49;6.80;;;2.85;;
65368;SDS011;51970;53.484;49.488;2023-07-02T07:58:15;5.40;;;2.35;;
65368;SDS011;51970;53.484;49.488;2023-07-02T08:00:41;5.43;;;2.03;;
65368;SDS011;51970;53.484;49.488;2023-07-02T08:03:09;9.90;;;2.33;;
65368;SDS011;51970;53.484;49.488;2023-07-02T08:05:35;6.13;;;2.45;;
65368;SDS011;51970;53.484;49.488;2023-07-02T08:08:02;7.35;;;2.70;;
65368;SDS011;51970;53.484;49.488;2023-07-02T08:10:28;4.93;;;2.33;;
65368;SDS011;51970;53.484;49.488;2023-07-02T08:12:54;4.93;;;1.83;;
65368;SDS011;51970;53.484;49.488;2023-07-02T08:15:20;5.15;;;2.08;;
65368;SDS011;51970;53.484;49.488;2023-07-02T08:17:47;6.72;;;2.03;;
65368;SDS011;51970;53.484;49.488;2023-07-02T08:20:13;3.85;;;1.38;;
65368;SDS011;51970;53.484;49.488;2023-07-02T08:22:39;5.47;;;1.98;;
65368;SDS011;51970;53.484;49.488;2023-07-02T08:25:06;14.73;;;2.65;;
65368;SDS011;51970;53.484;49.488;2023-07-02T08:27:33;4.10;;;1.83;;
65368;SDS011;51970;53.484;49.488;2023-07-02T08:30:00;9.18;;;1.48;;
65368;SDS011;51970;53.484;49.488;2023-07-02T08:32:26;6.10;;;1.85;;
65368;SDS011;51970;53.484;49.488;2023-07-02T08:34:52;8.60;;;2.15;;
65368;SDS011;51970;53.484;49.488;2023-07-02T08:37:20;5.50;;;1.70;;
65368;SDS011;51970;53.484;49.488;2023-07-02T08:39:48;4.75;;;1.52;;
65368;SDS011;51970;53.484;49.488;2023-07-02T08:42:15;5.85;;;2.00;;
65368;SDS011;51970;53.484;49.488;2023-07-02T08:44:42;8.07;;;1.92;;
65368;SDS011;51970;53.484;49.488;2023-07-02T08:47:11;7.70;;;2.60;;
65368;SDS011;51970;53.484;49.488;2023-07-02T08:49:38;9.20;;;2.38;;
65368;SDS011;51970;53.484;49.488;2023-07-02T08:52:04;5.75;;;1.80;;
65368;SDS011;51970;53.484;49.488;2023-07-02T08:54:31;5.47;;;1.75;;
65368;SDS011;51970;53.484;49.488;2023-07-02T08:56:57;6.90;;;3.05;;
65368;SDS011;51970;53.484;49.488;2023-07-02T08:59:23;4.03;;;1.60;;
65368;SDS011;51970;53.484;49.488;2023-07-02T09:01:52;8.57;;;2.25;;
65368;SDS011;51970;53.484;49.488;2023-07-02T09:04:22;4.38;;;1.65;;
65368;SDS011;51970;53.484;49.488;2023-07-02T09:07:13;6.72;;;2.80;;
65368;SDS011;51970;53.484;49.488;2023-07-02T09:09:48;6.35;;;2.28;;
65368;SDS011;51970;53.484;49.488;2023-07-02T09:12:48;5.40;;;2.25;;
65368;SDS011;51970;53.484;49.488;2023-07-02T09:15:08;5.60;;;2.25;;
65368;SDS011;51970;53.484;49.488;2023-07-02T09:17:37;6.50;;;2.28;;
65368;SDS011;51970;53.484;49.488;2023-07-02T09:20:04;5.18;;;1.70;;
65368;SDS011;51970;53.484;49.488;2023-07-02T09:22:33;5.35;;;2.53;;
65368;SDS011;51970;53.484;49.488;2023-07-02T09:25:00;4.80;;;2.35;;
65368;SDS011;51970;53.484;49.488;2023-07-02T09:27:33;5.25;;;2.13;;
65368;SDS011;51970;53.484;49.488;2023-07-02T09:32:44;6.05;;;2.67;;
65368;SDS011;51970;53.484;49.488;2023-07-02T09:35:11;7.40;;;2.40;;
65368;SDS011;51970;53.484;49.488;2023-07-02T09:37:38;5.00;;;2.20;;
65368;SDS011;51970;53.484;49.488;2023-07-02T09:40:07;6.40;;;2.05;;
65368;SDS011;51970;53.484;49.488;2023-07-02T09:42:38;5.55;;;1.88;;
65368;SDS011;51970;53.484;49.488;2023-07-02T09:45:07;5.63;;;2.63;;
65368;SDS011;51970;53.484;49.488;2023-07-02T09:47:37;6.78;;;2.42;;
65368;SDS011;51970;53.484;49.488;2023-07-02T09:50:11;6.03;;;2.25;;
65368;SDS011;51970;53.484;49.488;2023-07-02T09:52:38;5.53;;;2.65;;
65368;SDS011;51970;53.484;49.488;2023-07-02T09:55:05;4.88;;;2.00;;
65368;SDS011;51970;53.484;49.488;2023-07-02T09:57:32;4.93;;;1.85;;
65368;SDS011;51970;53.484;49.488;2023-07-02T09:59:59;4.70;;;2.28;;
65368;SDS011;51970;53.484;49.488;2023-07-02T10:02:26;5.88;;;2.75;;
65368;SDS011;51970;53.484;49.488;2023-07-02T10:04:52;12.40;;;3.17;;
65368;SDS011;51970;53.484;49.488;2023-07-02T10:07:30;4.97;;;2.35;;
65368;SDS011;51970;53.484;49.488;2023-07-02T10:10:00;5.90;;;2.13;;
65368;SDS011;51970;53.484;49.488;2023-07-02T10:12:27;8.82;;;2.22;;
65368;SDS011;51970;53.484;49.488;2023-07-02T10:14:57;5.10;;;2.25;;
65368;SDS011;51970;53.484;49.488;2023-07-02T10:17:25;4.88;;;1.80;;
65368;SDS011;51970;53.484;49.488;2023-07-02T10:19:55;11.00;;;2.80;;
65368;SDS011;51970;53.484;49.488;2023-07-02T10:22:22;6.63;;;2.85;;
65368;SDS011;51970;53.484;49.488;2023-07-02T10:24:56;4.75;;;2.30;;
65368;SDS011;51970;53.484;49.488;2023-07-02T10:30:05;4.60;;;2.15;;
65368;SDS011;51970;53.484;49.488;2023-07-02T10:32:32;4.90;;;2.30;;
65368;SDS011;51970;53.484;49.488;2023-07-02T10:35:00;6.13;;;2.58;;
65368;SDS011;51970;53.484;49.488;2023-07-02T10:37:46;5.45;;;2.70;;
65368;SDS011;51970;53.484;49.488;2023-07-02T10:40:13;5.93;;;2.38;;
65368;SDS011;51970;53.484;49.488;2023-07-02T10:42:47;8.85;;;2.05;;
65368;SDS011;51970;53.484;49.488;2023-07-02T10:45:14;6.28;;;2.55;;
65368;SDS011;51970;53.484;49.488;2023-07-02T10:47:40;5.20;;;2.22;;
65368;SDS011;51970;53.484;49.488;2023-07-02T10:50:20;5.40;;;1.73;;
65368;SDS011;51970;53.484;49.488;2023-07-02T10:52:47;5.22;;;2.28;;
65368;SDS011;51970;53.484;49.488;2023-07-02T10:55:16;5.78;;;2.13;;
65368;SDS011;51970;53.484;49.488;2023-07-02T10:57:46;5.85;;;2.40;;
65368;SDS011;51970;53.484;49.488;2023-07-02T11:00:14;5.55;;;1.80;;
65368;SDS011;51970;53.484;49.488;2023-07-02T11:02:40;4.70;;;1.92;;
65368;SDS011;51970;53.484;49.488;2023-07-02T11:05:07;4.30;;;1.52;;
65368;SDS011;51970;53.484;49.488;2023-07-02T11:07:41;5.07;;;2.10;;
65368;SDS011;51970;53.484;49.488;2023-07-02T11:10:08;4.40;;;1.73;;
65368;SDS011;51970;53.484;49.488;2023-07-02T11:12:35;4.85;;;2.03;;
65368;SDS011;51970;53.484;49.488;2023-07-02T11:17:38;5.88;;;2.13;;
65368;SDS011;51970;53.484;49.488;2023-07-02T11:20:06;5.47;;;1.55;;
65368;SDS011;51970;53.484;49.488;2023-07-02T11:22:34;5.10;;;1.75;;
65368;SDS011;51970;53.484;49.488;2023-07-02T11:25:15;5.32;;;2.55;;
65368;SDS011;51970;53.484;49.488;2023-07-02T11:27:42;11.00;;;1.83;;
65368;SDS011;51970;53.484;49.488;2023-07-02T11:30:10;4.32;;;1.95;;
65368;SDS011;51970;53.484;49.488;2023-07-02T11:32:47;4.65;;;1.73;;
65368;SDS011;51970;53.484;49.488;2023-07-02T11:35:15;4.03;;;1.33;;
65368;SDS011;51970;53.484;49.488;2023-07-02T11:37:41;6.88;;;2.28;;
65368;SDS011;51970;53.484;49.488;2023-07-02T11:40:08;4.88;;;1.33;;
65368;SDS011;51970;53.484;49.488;2023-07-02T11:42:35;8.25;;;2.63;;
65368;SDS011;51970;53.484;49.488;2023-07-02T11:45:01;4.68;;;2.13;;
65368;SDS011;51970;53.484;49.488;2023-07-02T11:47:27;4.28;;;1.60;;
65368;SDS011;51970;53.484;49.488;2023-07-02T11:49:53;8.77;;;1.95;;
65368;SDS011;51970;53.484;49.488;2023-07-02T11:52:25;8.98;;;1.92;;
65368;SDS011;51970;53.484;49.488;2023-07-02T11:54:51;5.18;;;1.65;;
65368;SDS011;51970;53.484;49.488;2023-07-02T11:57:17;4.90;;;2.45;;
65368;SDS011;51970;53.484;49.488;2023-07-02T11:59:43;6.22;;;1.98;;
65368;SDS011;51970;53.484;49.488;2023-07-02T12:02:09;6.90;;;2.05;;
65368;SDS011;51970;53.484;49.488;2023-07-02T12:04:35;4.82;;;1.80;;
65368;SDS011;51970;53.484;49.488;2023-07-02T12:07:01;6.43;;;2.45;;
65368;SDS011;51970;53.484;49.488;2023-07-02T12:09:29;6.05;;;2.47;;
65368;SDS011;51970;53.484;49.488;2023-07-02T12:11:55;4.60;;;1.88;;
65368;SDS011;51970;53.484;49.488;2023-07-02T12:14:21;4.20;;;1.42;;
65368;SDS011;51970;53.484;49.488;2023-07-02T12:16:47;4.28;;;1.92;;
65368;SDS011;51970;53.484;49.488;2023-07-02T12:19:13;4.88;;;1.95;;
65368;SDS011;51970;53.484;49.488;2023-07-02T12:21:40;4.40;;;1.90;;
65368;SDS011;51970;53.484;49.488;2023-07-02T12:24:06;8.27;;;2.42;;
65368;SDS011;51970;53.484;49.488;2023-07-02T12:26:35;7.60;;;2.35;;
65368;SDS011;51970;53.484;49.488;2023-07-02T12:29:01;5.25;;;2.90;;
65368;SDS011;51970;53.484;49.488;2023-07-02T12:31:28;5.68;;;1.85;;
65368;SDS011;51970;53.484;49.488;2023-07-02T12:33:54;6.55;;;1.90;;
65368;SDS011;51970;53.484;49.488;2023-07-02T12:36:20;5.15;;;2.25;;
65368;SDS011;51970;53.484;49.488;2023-07-02T12:38:46;7.03;;;3.05;;
65368;SDS011;51970;53.484;49.488;2023-07-02T12:41:12;6.13;;;2.50;;
65368;SDS011;51970;53.484;49.488;2023-07-02T12:43:38;5.75;;;2.17;;
65368;SDS011;51970;53.484;49.488;2023-07-02T12:46:05;6.18;;;2.50;;
65368;SDS011;51970;53.484;49.488;2023-07-02T12:48:32;5.50;;;2.63;;
65368;SDS011;51970;53.484;49.488;2023-07-02T12:50:59;5.93;;;2.00;;
65368;SDS011;51970;53.484;49.488;2023-07-02T12:53:26;5.53;;;2.03;;
65368;SDS011;51970;53.484;49.488;2023-07-02T12:55:53;5.25;;;2.22;;
65368;SDS011;51970;53.484;49.488;2023-07-02T12:58:20;7.45;;;2.97;;
65368;SDS011;51970;53.484;49.488;2023-07-02T13:00:47;6.00;;;2.45;;
65368;SDS011;51970;53.484;49.488;2023-07-02T13:03:13;6.47;;;2.30;;
65368;SDS011;51970;53.484;49.488;2023-07-02T13:05:40;7.50;;;2.80;;
65368;SDS011;51970;53.484;49.488;2023-07-02T13:08:06;6.32;;;2.60;;
65368;SDS011;51970;53.484;49.488;2023-07-02T13:10:32;6.18;;;2.58;;
65368;SDS011;51970;53.484;49.488;2023-07-02T13:12:59;5.70;;;2.10;;
65368;SDS011;51970;53.484;49.488;2023-07-02T13:15:26;8.60;;;2.67;;
65368;SDS011;51970;53.484;49.488;2023-07-02T13:17:52;6.32;;;2.00;;
65368;SDS011;51970;53.484;49.488;2023-07-02T13:20:18;8.68;;;3.03;;
65368;SDS011;51970;53.484;49.488;2023-07-02T13:22:44;7.97;;;2.63;;
65368;SDS011;51970;53.484;49.488;2023-07-02T13:25:10;7.32;;;2.97;;
65368;SDS011;51970;53.484;49.488;2023-07-02T13:27:37;6.85;;;2.92;;
65368;SDS011;51970;53.484;49.488;2023-07-02T13:30:03;9.30;;;3.13;;
65368;SDS011;51970;53.484;49.488;2023-07-02T13:32:30;5.82;;;2.92;;
65368;SDS011;51970;53.484;49.488;2023-07-02T13:34:56;6.80;;;2.47;;
65368;SDS011;51970;53.484;49.488;2023-07-02T13:37:22;6.28;;;3.22;;
65368;SDS011;51970;53.484;49.488;2023-07-02T13:39:48;7.05;;;2.95;;
65368;SDS011;51970;53.484;49.488;2023-07-02T13:42:15;5.50;;;2.45;;
65368;SDS011;51970;53.484;49.488;2023-07-02T13:44:41;6.63;;;2.92;;
65368;SDS011;51970;53.484;49.488;2023-07-02T13:47:08;6.78;;;2.55;;
65368;SDS011;51970;53.484;49.488;2023-07-02T13:49:34;6.03;;;1.90;;
65368;SDS011;51970;53.484;49.488;2023-07-02T13:52:00;12.45;;;2.83;;
65368;SDS011;51970;53.484;49.488;2023-07-02T13:54:27;8.00;;;2.67;;
65368;SDS011;51970;53.484;49.488;2023-07-02T13:56:53;7.82;;;2.47;;
65368;SDS011;51970;53.484;49.488;2023-07-02T13:59:21;6.30;;;2.72;;
65368;SDS011;51970;53.484;49.488;2023-07-02T14:01:48;8.65;;;3.08;;
65368;SDS011;51970;53.484;49.488;2023-07-02T14:04:15;10.68;;;3.28;;
65368;SDS011;51970;53.484;49.488;2023-07-02T14:06:43;6.22;;;2.85;;
65368;SDS011;51970;53.484;49.488;2023-07-02T14:09:09;6.80;;;2.33;;
65368;SDS011;51970;53.484;49.488;2023-07-02T14:11:38;7.55;;;2.85;;
65368;SDS011;51970;53.484;49.488;2023-07-02T14:14:06;5.75;;;2.88;;
65368;SDS011;51970;53.484;49.488;2023-07-02T14:16:33;6.13;;;2.67;;
65368;SDS011;51970;53.484;49.488;2023-07-02T14:18:59;6.13;;;2.53;;
65368;SDS011;51970;53.484;49.488;2023-07-02T14:21:25;7.43;;;3.33;;
65368;SDS011;51970;53.484;49.488;2023-07-02T14:23:52;7.70;;;2.92;;
65368;SDS011;51970;53.484;49.488;2023-07-02T14:26:18;6.78;;;2.47;;
65368;SDS011;51970;53.484;49.488;2023-07-02T14:28:44;8.07;;;2.95;;
65368;SDS011;51970;53.484;49.488;2023-07-02T14:31:10;9.95;;;2.70;;
65368;SDS011;51970;53.484;49.488;2023-07-02T14:33:36;6.97;;;3.30;;
65368;SDS011;51970;53.484;49.488;2023-07-02T14:36:03;6.18;;;3.10;;
65368;SDS011;51970;53.484;49.488;2023-07-02T14:38:30;8.38;;;3.97;;
65368;SDS011;51970;53.484;49.488;2023-07-02T14:40:58;7.43;;;2.90;;
65368;SDS011;51970;53.484;49.488;2023-07-02T14:43:26;6.53;;;3.10;;
65368;SDS011;51970;53.484;49.488;2023-07-02T14:45:55;7.53;;;2.70;;
65368;SDS011;51970;53.484;49.488;2023-07-02T14:48:23;6.80;;;2.83;;